Aérodrome :
LOGIN :

S'inscrire | Disclaimer

   EN    FR    IT 

 










Légende :    VFR   VFR Marginal   IFR   IFR Intensif   IFR Très Intensif
Visi : 
Plafond : 
>= 8 km
>= 3000ft
5 à 8 km
1000 à 3000 ft
1500m à 5 km
500 à 1000 ft
800 à 1500m
200 à 500 ft
< 800m
< 200 ft
Symboles :   Orages  Brouillard  Fortes neiges  Fortes précipitations  Vent > 20 kt
SIGMETs :   Divers  Orages  Givrage  Turbulence  Onde Orograph.  Cendres Volcan.






- Altitude de l'aérodrome : 1682 ft
- Code IATA : VIT


LEVT - Vitoria Gasteiz

DERNIER METAR :
  • 061100Z 15001KT 0200 R04/0650N R22/0550U FG VV001 04/04 Q1024

METARs EXPIRÉS :
  • 061030Z VRB01KT 0100 R04/0400N R22/0350N FG VV001 03/03 Q1024
  • 061000Z 12001KT 0100 R04/0450N R22/0350N FG VV001 03/03 Q1025
  • 060930Z 00000KT 0100 R04/0350N R22/0350N FG VV001 03/03 Q1024
  • 060900Z VRB01KT 0100 R04/0325N R22/0300N FG VV001 02/02 Q1024
  • 060830Z VRB02KT 0100 R04/0400N R22/0325N FG VV001 02/02 Q1024

TAF AMD TAF LEVT
Valide du 06 à 10h jusqu'au 07 à 06h UTC


061049Z 0610/0706 VRB05KT 9999 FEW015 TX13/0614Z TN01/0706Z
TEMPO 0610/0612 1500 BCFG BKN003
TEMPO 0610/0612 0350 FG VV001
PROB40
TEMPO 0610/0612 0150 FG VV001
PROB40
TEMPO 0700/0706 0350 FG VV001



MET'MAP, la Météo Aéronautique d'un coup d'oeil ! - Copyright ORBIFLY Décembre 2007 - Disclaimer

ORBIFLY MET'MAP TEAM :

Programmation & Développement : Alexandra Zaïnal
Sur une idée originale de : Baudouin d'Aumeries
Assistance à la programmation : Marc-Olivier Méhu
Soutien technique & logistique : Manuel Goepfert

Contact : metmap@orbifly.com




SOURCES & CREDITS :

   NOAA